Time;durP1;ratioP1;P1;durP2;ratioP2;P2;SDS_P1;SDS_P2;PMS_P1;PMS_P2;Temp;Humidity;BMP_temperature;BMP_pressure;BME280_temperature;BME280_humidity;BME280_pressure;Samples;Min_cycle;Max_cycle;Signal;HPM_P1;HPM_P2
2023/03/16 00:00:42;;;;;;;18.10;12.80;;;;;;;6.19;83.79;98969.44;107781;1255;72573;-83
2023/03/16 00:03:10;;;;;;;15.50;11.50;;;;;;;6.19;83.68;98969.17;106089;1255;61246;-81
2023/03/16 00:05:39;;;;;;;17.40;12.60;;;;;;;6.12;83.54;98966.66;105906;1261;61336;-81
2023/03/16 00:08:08;;;;;;;20.40;13.30;;;;;;;6.06;83.94;98965.30;105869;1256;74434;-82
2023/03/16 00:10:36;;;;;;;17.40;12.10;;;;;;;6.04;83.92;98968.34;106110;1260;69239;-81
2023/03/16 00:13:24;;;;;;;16.60;13.10;;;;;;;6.10;83.45;98960.00;106756;1258;73564;-80
2023/03/16 00:15:54;;;;;;;20.50;13.40;;;;;;;6.06;83.73;98964.23;108025;1258;60401;-79
2023/03/16 00:18:25;;;;;;;19.50;13.90;;;;;;;5.98;84.06;98961.61;106527;1260;60532;-80
2023/03/16 00:21:00;;;;;;;15.50;12.30;;;;;;;5.93;84.13;98962.08;106397;1261;72922;-80
2023/03/16 00:23:34;;;;;;;19.40;12.90;;;;;;;5.97;84.09;98961.89;106494;1260;71641;-81
2023/03/16 00:26:04;;;;;;;19.40;13.70;;;;;;;5.92;84.17;98966.26;106782;1256;72112;-81
2023/03/16 00:28:36;;;;;;;21.40;14.60;;;;;;;5.84;84.29;98961.77;107757;1255;60512;-83
2023/03/16 00:31:10;;;;;;;26.10;13.70;;;;;;;5.85;84.45;98960.84;108309;1256;60301;-79
2023/03/16 00:33:41;;;;;;;21.90;15.00;;;;;;;5.92;84.29;98959.20;108324;1256;72667;-80
2023/03/16 00:36:10;;;;;;;18.20;13.90;;;;;;;5.91;84.43;98958.08;107202;1256;70282;-83
2023/03/16 00:38:48;;;;;;;22.80;15.00;;;;;;;5.87;84.31;98957.92;106642;1260;71950;-82
2023/03/16 00:41:16;;;;;;;20.30;14.50;;;;;;;5.85;84.45;98954.80;106393;1261;62279;-82
2023/03/16 00:43:47;;;;;;;23.30;14.00;;;;;;;5.93;83.92;98957.36;106286;1257;60408;-80
2023/03/16 00:46:16;;;;;;;24.90;14.30;;;;;;;5.97;83.64;98956.83;108289;1257;73805;-82
2023/03/16 00:48:50;;;;;;;24.80;15.80;;;;;;;5.94;83.73;98954.80;109066;1257;68769;-82
2023/03/16 00:51:18;;;;;;;22.30;15.20;;;;;;;5.92;83.76;98958.30;107898;1258;72780;-83
2023/03/16 00:53:47;;;;;;;19.70;13.00;;;;;;;5.95;83.72;98965.45;107510;1257;60714;-79
2023/03/16 00:56:19;;;;;;;18.70;13.90;;;;;;;6.05;83.26;98964.06;107033;1257;60474;-79
2023/03/16 00:58:48;;;;;;;20.30;14.30;;;;;;;6.05;82.95;98964.01;106923;1257;73552;-83
2023/03/16 01:01:18;;;;;;;20.60;14.60;;;;;;;6.01;83.11;98966.89;107419;1260;70127;-79
2023/03/16 01:03:48;;;;;;;21.50;15.40;;;;;;;6.01;82.91;98973.05;106844;1262;71488;-78
2023/03/16 01:06:19;;;;;;;17.30;13.40;;;;;;;6.00;82.60;98972.77;106021;1258;60916;-78
2023/03/16 01:08:48;;;;;;;18.50;12.80;;;;;;;6.12;82.35;98973.39;105954;1255;60631;-78
2023/03/16 01:11:17;;;;;;;22.00;13.50;;;;;;;6.22;82.03;98973.77;105848;1260;73529;-77
2023/03/16 01:13:48;;;;;;;18.10;14.30;;;;;;;6.21;81.93;98976.45;106269;1260;69552;-77
2023/03/16 01:16:17;;;;;;;20.60;13.90;;;;;;;6.18;81.97;98980.16;105982;1269;70509;-75
2023/03/16 01:18:51;;;;;;;18.10;13.70;;;;;;;6.13;81.64;98976.26;105715;1257;61541;-75
2023/03/16 01:21:20;;;;;;;20.00;12.80;;;;;;;6.06;81.68;98975.41;105755;1260;60908;-74
2023/03/16 01:23:52;;;;;;;19.90;13.60;;;;;;;6.07;81.47;98980.52;105858;1260;74348;-79
2023/03/16 01:26:22;;;;;;;18.70;13.40;;;;;;;6.10;81.30;98979.36;105918;1260;68593;-80
2023/03/16 01:28:50;;;;;;;17.30;13.20;;;;;;;6.04;81.55;98986.80;108445;1257;72930;-79
2023/03/16 01:31:18;;;;;;;20.20;13.50;;;;;;;6.01;81.52;98994.25;109116;1257;60373;-79
2023/03/16 01:33:47;;;;;;;19.10;14.30;;;;;;;6.02;81.50;98997.23;109019;1257;59999;-80
2023/03/16 01:36:20;;;;;;;18.90;13.80;;;;;;;6.03;81.41;98995.90;108967;1257;72055;-82
2023/03/16 01:38:55;;;;;;;17.50;12.40;;;;;;;6.13;81.09;98998.53;109197;1257;69494;-80
2023/03/16 01:41:26;;;;;;;18.40;12.90;;;;;;;6.20;80.94;99000.13;109189;1257;71439;-83
2023/03/16 01:43:57;;;;;;;20.20;14.40;;;;;;;6.21;80.77;99012.14;109132;1260;60057;-83
2023/03/16 01:46:28;;;;;;;19.60;14.20;;;;;;;6.20;80.89;99005.30;109100;1255;58901;-81
2023/03/16 01:49:05;;;;;;;20.10;15.40;;;;;;;6.16;80.53;99006.34;109080;1257;73950;-83
2023/03/16 01:51:43;;;;;;;20.40;15.10;;;;;;;6.12;80.48;99006.77;107499;1256;70155;-82
2023/03/16 01:54:18;;;;;;;21.10;14.10;;;;;;;6.10;80.58;99004.09;107320;1257;73883;-79
2023/03/16 01:57:06;;;;;;;17.90;12.50;;;;;;;6.23;80.46;99005.85;107174;1256;61636;-79
2023/03/16 01:59:58;;;;;;;18.20;13.50;;;;;;;6.32;79.97;99008.95;105835;1261;61224;-79
2023/03/16 02:02:28;;;;;;;21.90;15.00;;;;;;;6.26;79.89;99009.86;107465;1263;73386;-82
2023/03/16 02:04:59;;;;;;;20.70;14.50;;;;;;;6.22;79.98;99011.41;108017;1259;70448;-81
2023/03/16 02:07:29;;;;;;;20.40;15.20;;;;;;;6.18;80.18;99016.13;105867;1255;70852;-83
2023/03/16 02:10:01;;;;;;;22.20;16.20;;;;;;;6.15;80.37;99020.84;105770;1258;61591;-80
2023/03/16 02:12:33;;;;;;;20.40;14.80;;;;;;;6.11;80.33;99021.25;106388;1258;60300;-83
2023/03/16 02:15:03;;;;;;;18.70;14.40;;;;;;;6.21;80.24;99017.11;106159;1260;73481;-79
2023/03/16 02:17:33;;;;;;;23.10;17.20;;;;;;;6.31;80.14;99019.73;106032;1257;70479;-80
2023/03/16 02:20:10;;;;;;;22.10;17.10;;;;;;;6.34;80.03;99025.12;105968;1258;72222;-79
2023/03/16 02:22:43;;;;;;;28.10;20.10;;;;;;;6.30;79.89;99031.46;106029;1262;60543;-80
2023/03/16 02:25:12;;;;;;;26.90;19.30;;;;;;;6.21;80.16;99026.05;106101;1257;60394;-78
2023/03/16 02:27:59;;;;;;;25.70;18.60;;;;;;;6.17;80.35;99033.91;105851;1260;72926;-78
2023/03/16 02:30:28;;;;;;;26.30;18.60;;;;;;;6.13;80.28;99039.64;105915;1258;70992;-77
2023/03/16 02:33:03;;;;;;;24.70;17.80;;;;;;;6.18;80.31;99034.08;106790;1256;72678;-78
2023/03/16 02:35:33;;;;;;;25.80;17.80;;;;;;;6.25;80.49;99040.06;109080;1255;58444;-78
2023/03/16 02:38:02;;;;;;;26.50;19.30;;;;;;;6.25;80.19;99049.02;108160;1260;60640;-77
2023/03/16 02:40:34;;;;;;;29.50;20.40;;;;;;;6.21;80.34;99049.48;107243;1260;74560;-78
2023/03/16 02:43:10;;;;;;;27.10;19.90;;;;;;;6.15;80.35;99044.81;106912;1260;68475;-78
2023/03/16 02:45:43;;;;;;;31.10;21.40;;;;;;;6.07;80.55;99044.48;106310;1260;71546;-78
2023/03/16 02:48:16;;;;;;;28.50;19.50;;;;;;;6.05;80.86;99044.13;106374;1260;60303;-77
2023/03/16 02:50:50;;;;;;;26.70;19.30;;;;;;;6.20;80.55;99039.55;107322;1257;60442;-78
2023/03/16 02:53:19;;;;;;;29.00;21.00;;;;;;;6.29;80.49;99029.41;107672;1258;73758;-77
2023/03/16 02:55:50;;;;;;;32.00;23.00;;;;;;;6.25;80.28;99019.45;106366;1261;70977;-79
2023/03/16 02:58:20;;;;;;;41.00;29.30;;;;;;;6.22;80.58;99019.83;106184;1263;72622;-76
2023/03/16 03:00:48;;;;;;;91.70;77.10;;;;;;;6.22;80.88;99019.06;106225;1258;60715;-80
2023/03/16 03:03:17;;;;;;;85.90;69.30;;;;;;;6.22;80.64;99026.16;106440;1260;60294;-75
2023/03/16 03:05:45;;;;;;;65.70;50.80;;;;;;;6.19;80.76;99025.95;106616;1257;73647;-74
2023/03/16 03:08:19;;;;;;;61.20;46.40;;;;;;;6.23;80.61;99030.84;106254;1257;71066;-74
2023/03/16 03:10:48;;;;;;;48.30;33.70;;;;;;;6.25;80.53;99039.20;106374;1257;72182;-77
2023/03/16 03:13:16;;;;;;;38.40;26.80;;;;;;;6.21;80.79;99035.35;107066;1254;60290;-78
2023/03/16 03:15:46;;;;;;;38.20;26.80;;;;;;;6.13;81.16;99029.30;106571;1258;60532;-80
2023/03/16 03:18:14;;;;;;;40.00;26.90;;;;;;;6.03;81.28;99026.35;108126;1257;74081;-78
2023/03/16 03:20:42;;;;;;;59.10;43.10;;;;;;;5.90;81.78;99039.89;107409;1258;68706;-82
2023/03/16 03:23:10;;;;;;;35.00;24.30;;;;;;;5.90;81.96;99046.45;106345;1260;73032;-79
2023/03/16 03:25:42;;;;;;;36.50;26.50;;;;;;;5.97;81.73;99046.20;107799;1255;60541;-79
2023/03/16 03:28:10;;;;;;;46.80;31.40;;;;;;;5.94;82.22;99040.18;109040;1256;59960;-78
2023/03/16 03:30:39;;;;;;;49.60;33.30;;;;;;;5.96;82.45;99045.83;109009;1254;73763;-77
2023/03/16 03:33:07;;;;;;;40.70;28.70;;;;;;;5.99;82.38;99049.70;106744;1257;69089;-77
2023/03/16 03:35:37;;;;;;;59.70;41.00;;;;;;;6.02;82.25;99042.36;106198;1255;73512;-78
2023/03/16 03:38:07;;;;;;;44.70;31.30;;;;;;;6.02;82.27;99046.06;106093;1260;60887;-78
2023/03/16 03:40:42;;;;;;;53.20;32.70;;;;;;;6.04;81.93;99048.14;107523;1258;61509;-78
2023/03/16 03:43:12;;;;;;;52.40;32.60;;;;;;;6.07;82.00;99042.92;107113;1254;73213;-78
2023/03/16 03:45:42;;;;;;;43.60;29.20;;;;;;;6.08;82.31;99041.92;106878;1260;70190;-80
2023/03/16 03:48:14;;;;;;;44.90;29.10;;;;;;;6.07;82.28;99039.10;106547;1257;72999;-81
2023/03/16 03:50:42;;;;;;;49.70;34.90;;;;;;;6.04;82.36;99038.33;105960;1258;60362;-80
2023/03/16 03:53:22;;;;;;;44.30;32.00;;;;;;;5.99;82.26;99046.53;105616;1262;60410;-79
2023/03/16 03:56:08;;;;;;;39.50;27.90;;;;;;;5.94;82.43;99046.73;105838;1260;74933;-78
2023/03/16 03:58:38;;;;;;;34.60;23.40;;;;;;;6.03;82.25;99044.44;105613;1261;69290;-78
2023/03/16 04:01:06;;;;;;;33.40;23.80;;;;;;;6.08;82.07;99043.05;105610;1260;73494;-77
2023/03/16 04:03:35;;;;;;;33.00;24.50;;;;;;;6.05;82.10;99051.45;105667;1257;60456;-77
2023/03/16 04:06:06;;;;;;;33.60;23.80;;;;;;;6.00;82.25;99054.91;105629;1258;61325;-78
2023/03/16 04:08:35;;;;;;;30.90;22.90;;;;;;;5.94;82.43;99054.95;105668;1256;73867;-76
2023/03/16 04:11:12;;;;;;;29.30;24.00;;;;;;;5.92;82.50;99054.30;105666;1260;71446;-78
2023/03/16 04:13:43;;;;;;;32.70;21.80;;;;;;;5.90;82.42;99056.42;105800;1260;71579;-81
2023/03/16 04:16:15;;;;;;;29.10;20.00;;;;;;;6.00;82.30;99061.64;107155;1259;62377;-84
2023/03/16 04:18:47;;;;;;;30.30;23.70;;;;;;;6.06;82.04;99060.42;108603;1256;59451;-83
2023/03/16 04:21:16;;;;;;;29.30;22.30;;;;;;;6.03;82.22;99058.67;108503;1256;73806;-83
2023/03/16 04:23:46;;;;;;;34.70;24.90;;;;;;;6.02;82.26;99062.08;109064;1257;70214;-81
2023/03/16 04:26:14;;;;;;;40.50;28.90;;;;;;;6.03;82.20;99067.09;108672;1257;72554;-79
2023/03/16 04:28:46;;;;;;;40.40;27.70;;;;;;;6.03;82.19;99064.27;108080;1255;62406;-81
2023/03/16 04:31:18;;;;;;;43.30;32.30;;;;;;;6.12;81.83;99064.25;107650;1257;60512;-80
2023/03/16 04:33:49;;;;;;;47.90;32.20;;;;;;;6.15;81.54;99065.74;107735;1260;74973;-81
2023/03/16 04:36:18;;;;;;;47.20;35.60;;;;;;;6.07;81.75;99067.45;107037;1258;69567;-83
2023/03/16 04:38:46;;;;;;;43.70;31.40;;;;;;;5.97;81.77;99072.25;106450;1257;72065;-83
2023/03/16 04:41:15;;;;;;;40.50;28.80;;;;;;;5.87;82.25;99073.20;106073;1258;60580;-83
2023/03/16 04:43:54;;;;;;;38.40;26.40;;;;;;;5.77;82.28;99084.27;107437;1255;60015;-79
2023/03/16 04:46:26;;;;;;;35.80;23.70;;;;;;;5.78;82.02;99092.27;108398;1256;72884;-79
2023/03/16 04:48:57;;;;;;;36.80;25.50;;;;;;;5.81;81.56;99097.27;108451;1255;69161;-82
2023/03/16 04:51:25;;;;;;;41.20;25.00;;;;;;;5.74;81.84;99096.68;108231;1255;70438;-83
2023/03/16 04:54:03;;;;;;;39.00;27.30;;;;;;;5.66;81.68;99096.61;106091;1256;60884;-80
2023/03/16 04:56:36;;;;;;;40.30;25.00;;;;;;;5.56;81.67;99099.14;105990;1255;60431;-81
2023/03/16 04:59:08;;;;;;;39.90;25.60;;;;;;;5.44;81.46;99101.79;106067;1256;74987;-81
2023/03/16 05:01:47;;;;;;;38.90;23.20;;;;;;;5.26;81.56;99104.39;105869;1255;71566;-78
2023/03/16 05:04:15;;;;;;;31.30;21.10;;;;;;;5.19;81.55;99106.82;105833;1260;71360;-79
2023/03/16 05:06:47;;;;;;;34.80;21.60;;;;;;;5.12;81.69;99108.20;105928;1260;60438;-78
2023/03/16 05:09:19;;;;;;;33.40;21.90;;;;;;;4.99;82.27;99108.40;106044;1255;60551;-79
2023/03/16 05:11:47;;;;;;;35.70;22.70;;;;;;;4.88;82.20;99110.44;105843;1256;73574;-80
2023/03/16 05:14:16;;;;;;;33.30;21.40;;;;;;;4.78;83.00;99113.96;106189;1256;69405;-78
2023/03/16 05:17:13;;;;;;;29.60;19.80;;;;;;;4.72;83.07;99117.06;108928;1255;73592;-81
2023/03/16 05:19:42;;;;;;;38.00;21.90;;;;;;;4.78;82.76;99120.09;108176;1255;61169;-79
2023/03/16 05:22:14;;;;;;;39.60;21.40;;;;;;;4.77;83.14;99125.96;108772;1255;60354;-83
2023/03/16 05:25:02;;;;;;;;;;;;;;;4.70;83.28;99130.39;106642;1256;73830;-82
2023/03/16 05:27:33;;;;;;;42.00;24.90;;;;;;;4.65;84.10;99140.25;106680;1255;70817;-79
2023/03/16 05:30:03;;;;;;;40.00;22.90;;;;;;;4.62;84.11;99143.29;107821;1255;71675;-81
2023/03/16 05:32:31;;;;;;;38.50;21.70;;;;;;;4.61;83.96;99150.44;107510;1255;60359;-83
2023/03/16 05:35:19;;;;;;;34.30;21.30;;;;;;;4.69;83.95;99155.27;107814;1257;61462;-83
2023/03/16 05:37:52;;;;;;;36.20;22.00;;;;;;;4.73;84.11;99161.93;106272;1257;71878;-84
2023/03/16 05:40:22;;;;;;;32.90;20.10;;;;;;;4.70;84.02;99167.98;106439;1257;70363;-84
2023/03/16 05:43:04;;;;;;;35.60;20.90;;;;;;;4.63;83.99;99173.95;106161;1256;72963;-83
2023/03/16 05:45:34;;;;;;;30.70;18.50;;;;;;;4.56;84.14;99176.30;106339;1256;60569;-81
2023/03/16 05:48:09;;;;;;;34.20;18.80;;;;;;;4.57;84.37;99176.72;108349;1256;60355;-81
2023/03/16 05:50:43;;;;;;;32.00;18.60;;;;;;;4.59;84.18;99179.55;108410;1257;73137;-83
2023/03/16 05:53:14;;;;;;;36.50;21.40;;;;;;;4.48;84.24;99179.16;106768;1257;69083;-82
2023/03/16 05:55:42;;;;;;;37.30;22.10;;;;;;;4.37;85.01;99180.05;107575;1257;72155;-83
2023/03/16 05:58:12;;;;;;;36.10;20.90;;;;;;;4.31;85.27;99184.61;106534;1256;60431;-81
2023/03/16 06:00:41;;;;;;;35.00;20.40;;;;;;;4.28;85.62;99184.14;105961;1260;60541;-78
2023/03/16 06:03:17;;;;;;;33.60;19.70;;;;;;;4.44;85.72;99183.23;105521;1260;74579;-79
2023/03/16 06:05:46;;;;;;;33.10;20.10;;;;;;;4.57;85.60;99181.89;105547;1261;70785;-78
2023/03/16 06:08:15;;;;;;;31.80;18.40;;;;;;;4.54;85.37;99178.91;106384;1256;72396;-76
2023/03/16 06:10:51;;;;;;;34.80;21.10;;;;;;;4.45;85.89;99178.70;108965;1256;60229;-77
2023/03/16 06:13:22;;;;;;;39.50;22.90;;;;;;;4.43;86.18;99187.01;108173;1260;60560;-78
2023/03/16 06:15:50;;;;;;;36.20;19.80;;;;;;;4.44;86.10;99188.86;105773;1261;72613;-76
2023/03/16 06:18:20;;;;;;;33.60;18.90;;;;;;;4.54;85.96;99191.39;105813;1258;70321;-77
2023/03/16 06:20:49;;;;;;;33.00;19.80;;;;;;;4.68;86.07;99193.80;105701;1256;73428;-76
2023/03/16 06:23:19;;;;;;;30.50;18.80;;;;;;;4.72;86.10;99192.87;105761;1257;60419;-78
2023/03/16 06:25:47;;;;;;;32.00;19.20;;;;;;;4.74;85.75;99196.19;105727;1260;60457;-76
2023/03/16 06:28:16;;;;;;;32.90;19.70;;;;;;;4.72;85.71;99198.98;105617;1258;74796;-78
2023/03/16 06:30:45;;;;;;;30.50;17.80;;;;;;;4.66;85.16;99201.17;105731;1255;71338;-77
2023/03/16 06:33:14;;;;;;;28.30;16.80;;;;;;;4.67;85.02;99198.46;105658;1256;73834;-79
2023/03/16 06:35:42;;;;;;;29.90;17.60;;;;;;;4.63;85.04;99205.45;106185;1263;60321;-77
2023/03/16 06:38:19;;;;;;;28.80;17.00;;;;;;;4.56;85.17;99208.60;106087;1256;60509;-74
2023/03/16 06:40:54;;;;;;;31.90;17.20;;;;;;;4.48;85.51;99207.90;105898;1260;72965;-79
2023/03/16 06:43:23;;;;;;;28.40;17.30;;;;;;;4.38;85.28;99209.73;105700;1257;71135;-76
2023/03/16 06:45:52;;;;;;;27.20;16.70;;;;;;;4.42;85.58;99215.85;105755;1255;72988;-76
2023/03/16 06:48:20;;;;;;;30.40;17.10;;;;;;;4.35;85.49;99216.46;105706;1255;60532;-77
2023/03/16 06:50:48;;;;;;;30.50;18.10;;;;;;;4.27;86.13;99217.38;105808;1255;61488;-76
2023/03/16 06:53:21;;;;;;;29.80;19.50;;;;;;;4.25;86.40;99220.90;105800;1260;74080;-79
2023/03/16 06:55:51;;;;;;;28.90;16.50;;;;;;;4.27;86.40;99222.25;105602;1258;69778;-79
2023/03/16 06:58:21;;;;;;;28.30;16.70;;;;;;;4.36;86.11;99227.40;105501;1256;72495;-79
2023/03/16 07:00:54;;;;;;;;;;;;;;;4.42;86.12;99223.86;105825;1256;61298;-78
2023/03/16 07:03:23;;;;;;;28.20;17.70;;;;;;;4.46;85.99;99229.27;107827;1255;60027;-75
2023/03/16 07:05:56;;;;;;;32.60;18.50;;;;;;;4.45;86.17;99230.27;108688;1255;72839;-75
2023/03/16 07:08:29;;;;;;;29.10;19.40;;;;;;;4.47;85.96;99236.39;106724;1256;70192;-80
2023/03/16 07:10:58;;;;;;;29.30;19.00;;;;;;;4.50;85.60;99238.02;107788;1255;72615;-79
2023/03/16 07:13:26;;;;;;;28.10;17.70;;;;;;;4.64;85.47;99238.70;107934;1255;59887;-79
2023/03/16 07:15:54;;;;;;;34.30;21.60;;;;;;;4.78;84.71;99243.08;107661;1259;232185;-74
2023/03/16 07:19:22;;;;;;;49.30;30.80;;;;;;;4.80;84.53;99241.27;103979;1286;600318;-78
2023/03/16 07:21:52;;;;;;;39.70;26.30;;;;;;;4.77;84.46;99244.67;106439;1267;60634;-75
2023/03/16 07:24:21;;;;;;;33.40;21.50;;;;;;;4.76;84.23;99247.93;105764;1267;60060;-76
2023/03/16 07:26:49;;;;;;;28.30;18.50;;;;;;;4.81;83.83;99247.80;106843;1271;71281;-74
2023/03/16 07:29:25;;;;;;;29.50;19.50;;;;;;;4.84;83.40;99248.60;105594;1271;69439;-76
2023/03/16 07:31:53;;;;;;;32.00;19.50;;;;;;;4.82;84.02;99253.20;105402;1271;228084;-73
2023/03/16 07:34:32;;;;;;;31.10;19.40;;;;;;;4.87;84.36;99258.09;106663;1268;61687;-79
2023/03/16 07:37:00;;;;;;;37.10;21.20;;;;;;;4.92;83.97;99261.19;106716;1263;59328;-77
2023/03/16 07:39:31;;;;;;;32.20;19.30;;;;;;;4.93;83.52;99267.58;106381;1267;70122;-73
2023/03/16 07:42:09;;;;;;;29.10;21.10;;;;;;;5.01;83.19;99262.48;105311;1268;70240;-76
2023/03/16 07:45:00;;;;;;;30.90;20.80;;;;;;;5.04;82.95;99261.64;105824;1268;70664;-78
2023/03/16 07:47:32;;;;;;;31.50;19.60;;;;;;;5.04;83.28;99265.55;106780;1267;60398;-76
2023/03/16 07:50:07;;;;;;;31.60;20.00;;;;;;;5.08;83.20;99269.55;106244;1266;59645;-77
2023/03/16 07:52:42;;;;;;;30.80;19.50;;;;;;;5.09;83.11;99274.01;106586;1265;72750;-77
2023/03/16 07:55:12;;;;;;;30.30;20.40;;;;;;;5.11;83.05;99271.34;106481;1267;69633;-75
2023/03/16 07:57:41;;;;;;;27.60;18.50;;;;;;;5.17;82.76;99271.67;108133;1267;72624;-78
2023/03/16 08:00:12;;;;;;;29.70;17.80;;;;;;;5.33;82.36;99276.86;109005;1255;61120;-79
2023/03/16 08:02:42;;;;;;;29.40;19.50;;;;;;;5.47;82.14;99282.02;109090;1256;60059;-80
2023/03/16 08:05:14;;;;;;;32.40;18.60;;;;;;;5.52;81.90;99284.91;109196;1256;70873;-79
2023/03/16 08:08:03;;;;;;;30.20;18.60;;;;;;;5.47;81.30;99286.35;108411;1257;69762;-78
2023/03/16 08:10:33;;;;;;;33.00;20.20;;;;;;;5.41;81.36;99285.88;107725;1256;72342;-77
2023/03/16 08:13:10;;;;;;;33.70;21.50;;;;;;;5.41;81.43;99285.02;107382;1256;59555;-80
2023/03/16 08:15:48;;;;;;;34.00;19.70;;;;;;;5.45;81.43;99287.67;108749;1256;60222;-84
2023/03/16 08:18:25;;;;;;;29.20;18.60;;;;;;;5.60;80.90;99286.36;109072;1257;72990;-84
2023/03/16 08:20:56;;;;;;;34.50;22.00;;;;;;;5.63;80.43;99287.11;109014;1257;69376;-80
2023/03/16 08:23:28;;;;;;;32.30;23.80;;;;;;;5.53;80.60;99285.81;108945;1257;71673;-85
2023/03/16 08:25:56;;;;;;;29.50;22.40;;;;;;;5.49;80.74;99286.93;108685;1257;60238;-78
2023/03/16 08:28:25;;;;;;;32.10;22.50;;;;;;;5.43;81.07;99287.15;107925;1257;59335;-76
2023/03/16 08:30:54;;;;;;;34.40;20.30;;;;;;;5.41;81.15;99286.29;107490;1257;70727;-76
2023/03/16 08:33:46;;;;;;;35.70;21.60;;;;;;;5.51;80.84;99288.48;108476;1257;69730;-78
2023/03/16 08:36:15;;;;;;;31.80;21.40;;;;;;;5.59;80.94;99287.21;107919;1258;72816;-77
2023/03/16 08:38:53;;;;;;;35.50;24.00;;;;;;;5.56;80.82;99285.55;108243;1258;61577;-76
2023/03/16 08:41:45;;;;;;;38.20;24.60;;;;;;;5.55;81.12;99283.73;107120;1257;60055;-77
2023/03/16 08:44:29;;;;;;;35.50;22.80;;;;;;;5.55;81.13;99288.13;106636;1263;73058;-75
2023/03/16 08:46:58;;;;;;;37.80;23.70;;;;;;;5.52;81.06;99291.38;106996;1258;68431;-79
2023/03/16 08:49:28;;;;;;;38.10;24.80;;;;;;;5.58;81.03;99297.94;108088;1257;72602;-78
2023/03/16 08:52:04;;;;;;;35.90;24.70;;;;;;;5.66;80.82;99307.22;108592;1257;60052;-74
2023/03/16 08:54:33;;;;;;;76.20;43.00;;;;;;;5.56;80.79;99309.60;108525;1257;60201;-76
2023/03/16 08:57:04;;;;;;;59.60;34.20;;;;;;;5.47;81.31;99311.71;107717;1258;71822;-75
2023/03/16 08:59:33;;;;;;;60.30;33.50;;;;;;;5.45;81.37;99308.94;107549;1257;70674;-74
2023/03/16 09:02:04;;;;;;;57.10;33.00;;;;;;;5.40;81.48;99316.02;108274;1257;70548;-78
2023/03/16 09:04:34;;;;;;;48.30;30.10;;;;;;;5.49;81.44;99319.70;108124;1258;60386;-77
2023/03/16 09:07:02;;;;;;;42.90;25.60;;;;;;;5.54;81.26;99324.01;108535;1259;60569;-82
2023/03/16 09:09:39;;;;;;;34.00;21.40;;;;;;;5.50;81.70;99329.44;108812;1259;74138;-80
2023/03/16 09:12:08;;;;;;;36.20;22.70;;;;;;;5.50;81.65;99333.36;108813;1259;70513;-82
2023/03/16 09:14:38;;;;;;;33.80;22.00;;;;;;;5.49;81.58;99334.88;108599;1261;72478;-79
2023/03/16 09:17:10;;;;;;;37.00;22.30;;;;;;;5.49;81.47;99332.37;108861;1258;59930;-80
2023/03/16 09:19:39;;;;;;;43.60;28.00;;;;;;;5.58;81.53;99329.26;108182;1257;59089;-78
2023/03/16 09:22:20;;;;;;;37.00;24.20;;;;;;;5.69;81.45;99332.91;108678;1257;72056;-80
2023/03/16 09:24:48;;;;;;;37.70;25.20;;;;;;;5.77;81.33;99336.60;108440;1260;68787;-80
2023/03/16 09:27:19;;;;;;;36.30;24.00;;;;;;;5.80;81.15;99339.44;108912;1256;72165;-80
2023/03/16 09:29:58;;;;;;;35.20;23.00;;;;;;;5.83;80.90;99341.42;108629;1263;59416;-81
2023/03/16 09:32:27;;;;;;;31.10;20.30;;;;;;;5.85;80.74;99335.66;107937;1257;60189;-76
2023/03/16 09:34:55;;;;;;;38.40;20.60;;;;;;;5.91;80.69;99332.74;107625;1257;72721;-78
2023/03/16 09:37:26;;;;;;;32.00;21.20;;;;;;;6.04;80.21;99334.19;107778;1260;70050;-77
2023/03/16 09:40:32;;;;;;;27.40;19.80;;;;;;;6.07;80.22;99335.28;107980;1257;73491;-79
2023/03/16 09:43:26;;;;;;;30.50;20.40;;;;;;;6.05;80.17;99335.63;107381;1257;60263;-76
2023/03/16 09:46:00;;;;;;;32.80;20.20;;;;;;;6.05;79.97;99336.94;108398;1258;59356;-75
2023/03/16 09:48:34;;;;;;;31.80;21.60;;;;;;;6.04;79.76;99336.23;108983;1257;73113;-79
2023/03/16 09:51:06;;;;;;;29.60;20.60;;;;;;;6.06;79.33;99337.86;108862;1257;70239;-78
2023/03/16 09:53:38;;;;;;;29.30;19.80;;;;;;;6.10;79.25;99337.86;108928;1257;71118;-80
2023/03/16 09:56:28;;;;;;;26.40;18.20;;;;;;;6.17;79.35;99341.55;108338;1257;59295;-82
2023/03/16 09:58:57;;;;;;;28.60;19.30;;;;;;;6.19;79.36;99342.21;109160;1256;57971;-81
2023/03/16 10:01:49;;;;;;;27.10;18.40;;;;;;;6.17;79.11;99340.71;109093;1257;70701;-82
2023/03/16 10:04:36;;;;;;;33.20;20.40;;;;;;;6.12;78.88;99344.72;108941;1257;70273;-80
2023/03/16 10:07:23;;;;;;;27.80;19.80;;;;;;;6.05;79.12;99341.15;108385;1256;71376;-80
2023/03/16 10:09:55;;;;;;;25.60;17.70;;;;;;;6.04;79.10;99341.56;107676;1257;59808;-81
2023/03/16 10:12:31;;;;;;;26.10;17.30;;;;;;;6.13;79.05;99341.23;107741;1257;60379;-80
2023/03/16 10:15:26;;;;;;;25.70;17.10;;;;;;;6.20;79.04;99343.33;108045;1257;74012;-79
2023/03/16 10:18:16;;;;;;;25.20;18.20;;;;;;;6.19;78.98;99345.02;107411;1257;69087;-77
2023/03/16 10:20:46;;;;;;;26.50;18.30;;;;;;;6.15;79.06;99342.84;107702;1257;72662;-79
2023/03/16 10:23:19;;;;;;;27.20;19.00;;;;;;;6.12;79.24;99346.13;107434;1260;60887;-83
2023/03/16 10:25:53;;;;;;;29.30;18.60;;;;;;;6.08;79.43;99344.33;107305;1257;61204;-78
2023/03/16 10:28:22;;;;;;;25.30;17.70;;;;;;;6.12;79.45;99352.60;107319;1258;74008;-81
2023/03/16 10:30:53;;;;;;;23.50;15.20;;;;;;;6.21;78.90;99354.02;107350;1258;71537;-79
2023/03/16 10:33:30;;;;;;;21.50;15.00;;;;;;;6.28;78.92;99354.92;107489;1257;70781;-80
2023/03/16 10:36:01;;;;;;;25.90;16.70;;;;;;;6.25;79.04;99355.73;108288;1257;61728;-81
2023/03/16 10:38:45;;;;;;;27.10;16.70;;;;;;;6.25;78.73;99359.45;108906;1257;59485;-81
2023/03/16 10:41:21;;;;;;;25.30;17.50;;;;;;;6.18;78.76;99361.47;108811;1257;71242;-79
2023/03/16 10:43:56;;;;;;;27.10;17.80;;;;;;;6.16;79.11;99359.30;109154;1257;70000;-80
2023/03/16 10:46:48;;;;;;;22.20;15.10;;;;;;;6.19;78.99;99359.27;109101;1257;72399;-80
2023/03/16 10:49:40;;;;;;;25.30;14.70;;;;;;;6.34;78.72;99364.69;109081;1257;60765;-81
2023/03/16 10:52:33;;;;;;;24.30;16.40;;;;;;;6.42;78.57;99370.11;109044;1257;60353;-80
2023/03/16 10:55:28;;;;;;;25.50;16.70;;;;;;;6.42;78.58;99373.91;108881;1257;72774;-80
2023/03/16 10:57:58;;;;;;;25.90;18.60;;;;;;;6.42;78.40;99369.75;109188;1257;70269;-82
2023/03/16 11:00:45;;;;;;;27.60;17.60;;;;;;;6.40;78.25;99371.14;109036;1257;72320;-82
2023/03/16 11:03:31;;;;;;;28.60;20.70;;;;;;;6.39;78.12;99368.83;108854;1259;61361;-83
2023/03/16 11:06:16;;;;;;;27.80;19.00;;;;;;;6.50;77.89;99366.48;108915;1259;59255;-81
2023/03/16 11:08:48;;;;;;;26.70;18.30;;;;;;;6.57;77.65;99368.08;109054;1258;72150;-83
2023/03/16 11:11:26;;;;;;;27.60;18.10;;;;;;;6.56;77.49;99368.42;108772;1257;70365;-82
2023/03/16 11:13:58;;;;;;;27.80;18.10;;;;;;;6.50;77.53;99368.54;108078;1257;72926;-79
2023/03/16 11:16:35;;;;;;;22.50;16.20;;;;;;;6.43;77.71;99369.08;107967;1259;59264;-80
2023/03/16 11:19:19;;;;;;;22.80;17.70;;;;;;;6.39;77.75;99365.46;108046;1259;59470;-80
2023/03/16 11:21:55;;;;;;;22.00;15.40;;;;;;;6.36;77.87;99363.96;107972;1259;73925;-79
2023/03/16 11:25:08;;;;;;;21.10;14.40;;;;;;;6.43;77.67;99365.02;107239;1258;70081;-80
2023/03/16 11:28:11;;;;;;;21.80;15.70;;;;;;;6.43;77.47;99365.38;108635;1258;72670;-81
2023/03/16 11:30:46;;;;;;;26.80;17.00;;;;;;;6.34;77.68;99364.22;108928;1258;60492;-80
2023/03/16 11:33:15;;;;;;;26.60;18.20;;;;;;;6.27;77.93;99369.58;108386;1263;60043;-78
2023/03/16 11:36:00;;;;;;;23.20;15.50;;;;;;;6.24;78.06;99369.67;108536;1255;72112;-78
2023/03/16 11:38:59;;;;;;;27.70;17.70;;;;;;;6.21;78.12;99374.55;109208;1255;70199;-79
2023/03/16 11:41:36;;;;;;;24.60;16.00;;;;;;;6.32;78.00;99386.34;108883;1257;72638;-80
2023/03/16 11:44:29;;;;;;;24.80;16.80;;;;;;;6.42;77.61;99388.71;107484;1255;61303;-81
2023/03/16 11:47:24;;;;;;;24.00;17.70;;;;;;;6.45;77.85;99388.62;108032;1255;60327;-81